Albert, New Mexico
Current Conditions -  °F | °C
As of 8:53 PM on Thursday 27 Nov 2014 (Local Time) from KTCC Reporting Station
Clear Clear  
Wind Chill: 44°   Ceiling: Unl
Heat Index: 48°   Visibility: 10mi
Dew Point: 28°   Wind: 8mph
Humidity: 46%   Direction: 220°SW
Pressure: 30.19"   Gusts: NA
Location:  35.7181°N, 103.591°W
Report Text: KTCC 280353Z AUTO 22007KT 10SM CLR 09/M02 A3019 RMK AO2 SLP210 T00891022
Loading
Personal Weather Stations






























Interactive Weather Map New forecast layout! Learn more

10-Day Weather Forecast

Advertisements
Track Severe Weather on mobile